sensor_id;sensor_type;location;lat;lon;timestamp;temperature;humidity
7762;DHT22;3925;48.636;9.516;2023-03-04T00:00:58;2.60;99.90
7762;DHT22;3925;48.636;9.516;2023-03-04T00:03:25;2.70;99.90
7762;DHT22;3925;48.636;9.516;2023-03-04T00:05:52;2.80;99.90
7762;DHT22;3925;48.636;9.516;2023-03-04T00:08:18;2.90;99.90
7762;DHT22;3925;48.636;9.516;2023-03-04T00:10:45;3.10;99.90
7762;DHT22;3925;48.636;9.516;2023-03-04T00:13:13;3.00;99.90
7762;DHT22;3925;48.636;9.516;2023-03-04T00:15:41;3.00;99.90
7762;DHT22;3925;48.636;9.516;2023-03-04T00:18:08;2.90;99.90
7762;DHT22;3925;48.636;9.516;2023-03-04T00:20:35;2.90;99.90
7762;DHT22;3925;48.636;9.516;2023-03-04T00:23:01;2.90;99.90
7762;DHT22;3925;48.636;9.516;2023-03-04T00:25:28;2.80;99.90
7762;DHT22;3925;48.636;9.516;2023-03-04T00:27:55;2.60;99.90
7762;DHT22;3925;48.636;9.516;2023-03-04T00:30:25;2.50;99.90
7762;DHT22;3925;48.636;9.516;2023-03-04T00:32:52;2.60;99.90
7762;DHT22;3925;48.636;9.516;2023-03-04T00:35:18;2.80;99.90
7762;DHT22;3925;48.636;9.516;2023-03-04T00:37:45;2.80;99.90
7762;DHT22;3925;48.636;9.516;2023-03-04T00:40:12;2.90;99.90
7762;DHT22;3925;48.636;9.516;2023-03-04T00:42:39;2.70;99.90
7762;DHT22;3925;48.636;9.516;2023-03-04T00:45:07;2.70;99.90
7762;DHT22;3925;48.636;9.516;2023-03-04T00:47:36;2.60;99.90
7762;DHT22;3925;48.636;9.516;2023-03-04T00:50:03;2.40;99.90
7762;DHT22;3925;48.636;9.516;2023-03-04T00:52:30;2.10;99.90
7762;DHT22;3925;48.636;9.516;2023-03-04T00:54:57;2.00;99.90
7762;DHT22;3925;48.636;9.516;2023-03-04T00:57:24;2.20;99.90
7762;DHT22;3925;48.636;9.516;2023-03-04T00:59:51;2.40;99.90
7762;DHT22;3925;48.636;9.516;2023-03-04T01:02:18;2.30;99.90
7762;DHT22;3925;48.636;9.516;2023-03-04T01:04:46;2.20;99.90
7762;DHT22;3925;48.636;9.516;2023-03-04T01:07:13;2.10;99.90
7762;DHT22;3925;48.636;9.516;2023-03-04T01:09:40;1.90;99.90
7762;DHT22;3925;48.636;9.516;2023-03-04T01:12:07;2.20;99.90
7762;DHT22;3925;48.636;9.516;2023-03-04T01:14:34;2.30;99.90
7762;DHT22;3925;48.636;9.516;2023-03-04T01:17:01;2.30;99.90
7762;DHT22;3925;48.636;9.516;2023-03-04T01:19:28;2.20;99.90
7762;DHT22;3925;48.636;9.516;2023-03-04T01:21:56;2.10;99.90
7762;DHT22;3925;48.636;9.516;2023-03-04T01:24:23;2.00;99.90
7762;DHT22;3925;48.636;9.516;2023-03-04T01:26:49;1.90;99.90
7762;DHT22;3925;48.636;9.516;2023-03-04T01:29:16;1.80;99.90
7762;DHT22;3925;48.636;9.516;2023-03-04T01:31:43;1.80;99.90
7762;DHT22;3925;48.636;9.516;2023-03-04T01:34:10;1.70;99.90
7762;DHT22;3925;48.636;9.516;2023-03-04T01:36:37;1.80;99.90
7762;DHT22;3925;48.636;9.516;2023-03-04T01:39:05;1.90;99.90
7762;DHT22;3925;48.636;9.516;2023-03-04T01:41:32;1.90;99.90
7762;DHT22;3925;48.636;9.516;2023-03-04T01:44:00;1.80;99.90
7762;DHT22;3925;48.636;9.516;2023-03-04T01:46:28;1.60;99.90
7762;DHT22;3925;48.636;9.516;2023-03-04T01:48:55;1.60;99.90
7762;DHT22;3925;48.636;9.516;2023-03-04T01:51:22;1.70;99.90
7762;DHT22;3925;48.636;9.516;2023-03-04T01:53:50;1.90;99.90
7762;DHT22;3925;48.636;9.516;2023-03-04T01:56:23;1.70;99.90
7762;DHT22;3925;48.636;9.516;2023-03-04T01:59:15;1.60;99.90
7762;DHT22;3925;48.636;9.516;2023-03-04T02:01:44;1.50;99.90
7762;DHT22;3925;48.636;9.516;2023-03-04T02:04:13;1.40;99.90
7762;DHT22;3925;48.636;9.516;2023-03-04T02:06:41;1.40;99.90
7762;DHT22;3925;48.636;9.516;2023-03-04T02:09:09;1.30;99.90
7762;DHT22;3925;48.636;9.516;2023-03-04T02:11:37;1.30;99.90
7762;DHT22;3925;48.636;9.516;2023-03-04T02:14:05;1.30;99.90
7762;DHT22;3925;48.636;9.516;2023-03-04T02:16:32;1.20;99.90
7762;DHT22;3925;48.636;9.516;2023-03-04T02:18:59;1.10;99.90
7762;DHT22;3925;48.636;9.516;2023-03-04T02:21:28;1.00;99.90
7762;DHT22;3925;48.636;9.516;2023-03-04T02:24:02;1.00;99.90
7762;DHT22;3925;48.636;9.516;2023-03-04T02:26:34;0.90;99.90
7762;DHT22;3925;48.636;9.516;2023-03-04T02:29:02;0.90;99.90
7762;DHT22;3925;48.636;9.516;2023-03-04T02:31:32;0.90;99.90
7762;DHT22;3925;48.636;9.516;2023-03-04T02:34:01;0.90;99.90
7762;DHT22;3925;48.636;9.516;2023-03-04T02:36:29;1.10;99.90
7762;DHT22;3925;48.636;9.516;2023-03-04T02:39:02;1.50;99.90
7762;DHT22;3925;48.636;9.516;2023-03-04T02:41:30;1.70;99.90
7762;DHT22;3925;48.636;9.516;2023-03-04T02:43:59;1.60;99.90
7762;DHT22;3925;48.636;9.516;2023-03-04T02:46:25;1.60;99.90
7762;DHT22;3925;48.636;9.516;2023-03-04T02:48:52;1.60;99.90
7762;DHT22;3925;48.636;9.516;2023-03-04T02:51:19;1.70;99.90
7762;DHT22;3925;48.636;9.516;2023-03-04T02:53:46;1.80;99.90
7762;DHT22;3925;48.636;9.516;2023-03-04T02:56:13;1.70;99.90
7762;DHT22;3925;48.636;9.516;2023-03-04T02:58:40;1.60;99.90
7762;DHT22;3925;48.636;9.516;2023-03-04T03:01:08;1.50;99.90
7762;DHT22;3925;48.636;9.516;2023-03-04T03:03:35;1.40;99.90
7762;DHT22;3925;48.636;9.516;2023-03-04T03:06:02;1.30;99.90
7762;DHT22;3925;48.636;9.516;2023-03-04T03:08:29;1.10;99.90
7762;DHT22;3925;48.636;9.516;2023-03-04T03:10:56;1.10;99.90
7762;DHT22;3925;48.636;9.516;2023-03-04T03:13:23;1.00;99.90
7762;DHT22;3925;48.636;9.516;2023-03-04T03:15:50;0.90;99.90
7762;DHT22;3925;48.636;9.516;2023-03-04T03:18:18;0.90;99.90
7762;DHT22;3925;48.636;9.516;2023-03-04T03:20:45;0.90;99.90
7762;DHT22;3925;48.636;9.516;2023-03-04T03:23:12;0.80;99.90
7762;DHT22;3925;48.636;9.516;2023-03-04T03:25:39;0.80;99.90
7762;DHT22;3925;48.636;9.516;2023-03-04T03:28:05;0.80;99.90
7762;DHT22;3925;48.636;9.516;2023-03-04T03:30:32;0.80;99.90
7762;DHT22;3925;48.636;9.516;2023-03-04T03:32:59;0.70;99.90
7762;DHT22;3925;48.636;9.516;2023-03-04T03:35:27;0.70;99.90
7762;DHT22;3925;48.636;9.516;2023-03-04T03:37:54;0.70;99.90
7762;DHT22;3925;48.636;9.516;2023-03-04T03:40:21;0.70;99.90
7762;DHT22;3925;48.636;9.516;2023-03-04T03:42:48;0.60;99.90
7762;DHT22;3925;48.636;9.516;2023-03-04T03:45:15;0.60;99.90
7762;DHT22;3925;48.636;9.516;2023-03-04T03:47:42;0.70;99.90
7762;DHT22;3925;48.636;9.516;2023-03-04T03:50:09;0.90;99.90
7762;DHT22;3925;48.636;9.516;2023-03-04T03:52:38;0.80;99.90
7762;DHT22;3925;48.636;9.516;2023-03-04T03:55:05;0.80;99.90
7762;DHT22;3925;48.636;9.516;2023-03-04T03:57:32;1.00;99.90
7762;DHT22;3925;48.636;9.516;2023-03-04T03:59:59;1.10;99.90
7762;DHT22;3925;48.636;9.516;2023-03-04T04:02:25;1.30;99.90
7762;DHT22;3925;48.636;9.516;2023-03-04T04:04:52;1.30;99.90
7762;DHT22;3925;48.636;9.516;2023-03-04T04:07:19;1.20;99.90
7762;DHT22;3925;48.636;9.516;2023-03-04T04:09:47;1.00;99.90
7762;DHT22;3925;48.636;9.516;2023-03-04T04:12:15;0.90;99.90
7762;DHT22;3925;48.636;9.516;2023-03-04T04:14:42;0.90;99.90
7762;DHT22;3925;48.636;9.516;2023-03-04T04:17:10;1.00;99.90
7762;DHT22;3925;48.636;9.516;2023-03-04T04:19:38;1.00;99.90
7762;DHT22;3925;48.636;9.516;2023-03-04T04:22:06;1.00;99.90
7762;DHT22;3925;48.636;9.516;2023-03-04T04:24:33;1.10;99.90
7762;DHT22;3925;48.636;9.516;2023-03-04T04:27:01;1.00;99.90
7762;DHT22;3925;48.636;9.516;2023-03-04T04:29:29;1.10;99.90
7762;DHT22;3925;48.636;9.516;2023-03-04T04:31:55;1.20;99.90
7762;DHT22;3925;48.636;9.516;2023-03-04T04:34:22;1.10;99.90
7762;DHT22;3925;48.636;9.516;2023-03-04T04:36:49;1.30;99.90
7762;DHT22;3925;48.636;9.516;2023-03-04T04:39:16;1.30;99.90
7762;DHT22;3925;48.636;9.516;2023-03-04T04:41:44;1.50;99.90
7762;DHT22;3925;48.636;9.516;2023-03-04T04:44:13;1.40;99.90
7762;DHT22;3925;48.636;9.516;2023-03-04T04:46:40;1.50;99.90
7762;DHT22;3925;48.636;9.516;2023-03-04T04:49:07;1.50;99.90
7762;DHT22;3925;48.636;9.516;2023-03-04T04:51:36;1.30;99.90
7762;DHT22;3925;48.636;9.516;2023-03-04T04:54:03;1.30;99.90
7762;DHT22;3925;48.636;9.516;2023-03-04T04:56:31;1.10;99.90
7762;DHT22;3925;48.636;9.516;2023-03-04T04:59:00;0.80;99.90
7762;DHT22;3925;48.636;9.516;2023-03-04T05:01:29;0.60;99.90
7762;DHT22;3925;48.636;9.516;2023-03-04T05:03:56;0.50;99.90
7762;DHT22;3925;48.636;9.516;2023-03-04T05:06:23;0.60;99.90
7762;DHT22;3925;48.636;9.516;2023-03-04T05:08:50;0.60;99.90
7762;DHT22;3925;48.636;9.516;2023-03-04T05:11:18;0.50;99.90
7762;DHT22;3925;48.636;9.516;2023-03-04T05:13:45;0.50;99.90
7762;DHT22;3925;48.636;9.516;2023-03-04T05:16:13;0.50;99.90
7762;DHT22;3925;48.636;9.516;2023-03-04T05:18:41;0.30;99.90
7762;DHT22;3925;48.636;9.516;2023-03-04T05:21:08;0.20;99.90
7762;DHT22;3925;48.636;9.516;2023-03-04T05:23:37;0.30;99.90
7762;DHT22;3925;48.636;9.516;2023-03-04T05:26:05;0.20;99.90
7762;DHT22;3925;48.636;9.516;2023-03-04T05:28:33;0.30;99.90
7762;DHT22;3925;48.636;9.516;2023-03-04T05:31:01;0.50;99.90
7762;DHT22;3925;48.636;9.516;2023-03-04T05:33:29;0.40;99.90
7762;DHT22;3925;48.636;9.516;2023-03-04T05:35:57;0.70;99.90
7762;DHT22;3925;48.636;9.516;2023-03-04T05:38:24;0.80;99.90
7762;DHT22;3925;48.636;9.516;2023-03-04T05:40:56;0.80;99.90
7762;DHT22;3925;48.636;9.516;2023-03-04T05:43:24;0.70;99.90
7762;DHT22;3925;48.636;9.516;2023-03-04T05:45:52;0.60;99.90
7762;DHT22;3925;48.636;9.516;2023-03-04T05:48:19;0.50;99.90
7762;DHT22;3925;48.636;9.516;2023-03-04T05:50:46;0.50;99.90
7762;DHT22;3925;48.636;9.516;2023-03-04T05:53:14;0.40;99.90
7762;DHT22;3925;48.636;9.516;2023-03-04T05:55:45;0.30;99.90
7762;DHT22;3925;48.636;9.516;2023-03-04T05:58:13;0.10;99.90
7762;DHT22;3925;48.636;9.516;2023-03-04T06:00:39;0.10;99.90
7762;DHT22;3925;48.636;9.516;2023-03-04T06:03:06;0.00;99.90
7762;DHT22;3925;48.636;9.516;2023-03-04T06:05:38;0.00;99.90
7762;DHT22;3925;48.636;9.516;2023-03-04T06:08:05;-0.10;99.90
7762;DHT22;3925;48.636;9.516;2023-03-04T06:10:33;0.00;99.90
7762;DHT22;3925;48.636;9.516;2023-03-04T06:13:00;0.00;99.90
7762;DHT22;3925;48.636;9.516;2023-03-04T06:15:26;-0.10;99.90
7762;DHT22;3925;48.636;9.516;2023-03-04T06:17:53;-0.10;99.90
7762;DHT22;3925;48.636;9.516;2023-03-04T06:20:20;-0.10;99.90
7762;DHT22;3925;48.636;9.516;2023-03-04T06:22:47;0.00;99.90
7762;DHT22;3925;48.636;9.516;2023-03-04T06:25:14;0.00;99.90
7762;DHT22;3925;48.636;9.516;2023-03-04T06:27:42;0.10;99.90
7762;DHT22;3925;48.636;9.516;2023-03-04T06:30:10;0.10;99.90
7762;DHT22;3925;48.636;9.516;2023-03-04T06:32:37;0.00;99.90
7762;DHT22;3925;48.636;9.516;2023-03-04T06:35:05;0.10;99.90
7762;DHT22;3925;48.636;9.516;2023-03-04T06:37:32;0.10;99.90
7762;DHT22;3925;48.636;9.516;2023-03-04T06:39:59;0.20;99.90
7762;DHT22;3925;48.636;9.516;2023-03-04T06:42:26;0.20;99.90
7762;DHT22;3925;48.636;9.516;2023-03-04T06:44:54;0.30;99.90
7762;DHT22;3925;48.636;9.516;2023-03-04T06:47:21;0.50;99.90
7762;DHT22;3925;48.636;9.516;2023-03-04T06:49:48;0.70;99.90
7762;DHT22;3925;48.636;9.516;2023-03-04T06:52:15;0.90;99.90
7762;DHT22;3925;48.636;9.516;2023-03-04T06:54:42;1.10;99.90
7762;DHT22;3925;48.636;9.516;2023-03-04T06:57:09;1.30;99.90
7762;DHT22;3925;48.636;9.516;2023-03-04T06:59:35;1.40;99.90
7762;DHT22;3925;48.636;9.516;2023-03-04T07:02:04;1.50;99.90
7762;DHT22;3925;48.636;9.516;2023-03-04T07:04:30;1.60;99.90
7762;DHT22;3925;48.636;9.516;2023-03-04T07:06:57;1.80;99.90
7762;DHT22;3925;48.636;9.516;2023-03-04T07:09:24;2.00;99.90
7762;DHT22;3925;48.636;9.516;2023-03-04T07:11:51;2.20;99.90
7762;DHT22;3925;48.636;9.516;2023-03-04T07:14:18;2.30;99.90
7762;DHT22;3925;48.636;9.516;2023-03-04T07:16:45;2.50;99.90
7762;DHT22;3925;48.636;9.516;2023-03-04T07:19:13;2.70;99.90
7762;DHT22;3925;48.636;9.516;2023-03-04T07:21:40;2.80;99.90
7762;DHT22;3925;48.636;9.516;2023-03-04T07:24:07;3.10;99.90
7762;DHT22;3925;48.636;9.516;2023-03-04T07:26:34;3.30;99.90
7762;DHT22;3925;48.636;9.516;2023-03-04T07:29:02;2.90;99.90
7762;DHT22;3925;48.636;9.516;2023-03-04T07:31:30;2.90;99.90
7762;DHT22;3925;48.636;9.516;2023-03-04T07:33:59;2.80;99.90
7762;DHT22;3925;48.636;9.516;2023-03-04T07:36:28;3.00;99.90
7762;DHT22;3925;48.636;9.516;2023-03-04T07:38:55;3.30;99.90
7762;DHT22;3925;48.636;9.516;2023-03-04T07:41:24;3.40;99.90
7762;DHT22;3925;48.636;9.516;2023-03-04T07:43:51;3.50;99.90
7762;DHT22;3925;48.636;9.516;2023-03-04T07:46:18;3.40;99.90
7762;DHT22;3925;48.636;9.516;2023-03-04T07:48:45;3.50;99.90
7762;DHT22;3925;48.636;9.516;2023-03-04T07:51:14;3.40;99.90
7762;DHT22;3925;48.636;9.516;2023-03-04T07:53:44;3.30;99.90
7762;DHT22;3925;48.636;9.516;2023-03-04T07:56:14;3.10;99.90
7762;DHT22;3925;48.636;9.516;2023-03-04T07:58:41;3.30;99.90
7762;DHT22;3925;48.636;9.516;2023-03-04T08:01:09;3.20;99.90
7762;DHT22;3925;48.636;9.516;2023-03-04T08:03:37;3.10;99.90
7762;DHT22;3925;48.636;9.516;2023-03-04T08:06:05;3.10;99.90
7762;DHT22;3925;48.636;9.516;2023-03-04T08:08:32;3.10;99.90
7762;DHT22;3925;48.636;9.516;2023-03-04T08:11:03;3.10;99.90
7762;DHT22;3925;48.636;9.516;2023-03-04T08:13:30;3.30;99.90
7762;DHT22;3925;48.636;9.516;2023-03-04T08:15:58;3.30;99.90
7762;DHT22;3925;48.636;9.516;2023-03-04T08:18:25;3.30;99.90
7762;DHT22;3925;48.636;9.516;2023-03-04T08:20:52;3.40;99.90
7762;DHT22;3925;48.636;9.516;2023-03-04T08:23:19;3.20;99.90
7762;DHT22;3925;48.636;9.516;2023-03-04T08:25:46;3.20;99.90
7762;DHT22;3925;48.636;9.516;2023-03-04T08:28:14;3.20;99.90
7762;DHT22;3925;48.636;9.516;2023-03-04T08:30:41;3.10;99.90
7762;DHT22;3925;48.636;9.516;2023-03-04T08:33:09;3.20;99.90
7762;DHT22;3925;48.636;9.516;2023-03-04T08:35:37;3.10;99.90
7762;DHT22;3925;48.636;9.516;2023-03-04T08:38:05;3.10;99.90
7762;DHT22;3925;48.636;9.516;2023-03-04T08:40:32;3.00;99.90
7762;DHT22;3925;48.636;9.516;2023-03-04T08:42:59;2.90;99.90
7762;DHT22;3925;48.636;9.516;2023-03-04T08:45:28;2.60;99.90
7762;DHT22;3925;48.636;9.516;2023-03-04T08:47:54;2.70;99.90
7762;DHT22;3925;48.636;9.516;2023-03-04T08:50:21;2.90;99.90
7762;DHT22;3925;48.636;9.516;2023-03-04T08:52:48;3.10;99.90
7762;DHT22;3925;48.636;9.516;2023-03-04T08:55:15;3.20;99.90
7762;DHT22;3925;48.636;9.516;2023-03-04T08:57:42;3.20;99.90
7762;DHT22;3925;48.636;9.516;2023-03-04T09:00:10;3.10;99.90
7762;DHT22;3925;48.636;9.516;2023-03-04T09:02:38;3.30;99.90
7762;DHT22;3925;48.636;9.516;2023-03-04T09:05:06;3.30;99.90
7762;DHT22;3925;48.636;9.516;2023-03-04T09:07:33;3.40;99.90
7762;DHT22;3925;48.636;9.516;2023-03-04T09:10:00;3.50;99.90
7762;DHT22;3925;48.636;9.516;2023-03-04T09:12:27;3.30;99.90
7762;DHT22;3925;48.636;9.516;2023-03-04T09:14:54;3.40;99.90
7762;DHT22;3925;48.636;9.516;2023-03-04T09:17:21;3.50;99.90
7762;DHT22;3925;48.636;9.516;2023-03-04T09:19:49;3.40;99.90
7762;DHT22;3925;48.636;9.516;2023-03-04T09:22:16;3.40;99.90
7762;DHT22;3925;48.636;9.516;2023-03-04T09:24:43;3.40;99.90
7762;DHT22;3925;48.636;9.516;2023-03-04T09:27:09;3.50;99.90
7762;DHT22;3925;48.636;9.516;2023-03-04T09:29:36;3.40;99.90
7762;DHT22;3925;48.636;9.516;2023-03-04T09:32:03;3.40;99.90
7762;DHT22;3925;48.636;9.516;2023-03-04T09:34:31;3.50;99.90
7762;DHT22;3925;48.636;9.516;2023-03-04T09:36:59;3.50;99.90
7762;DHT22;3925;48.636;9.516;2023-03-04T09:39:26;3.30;99.90
7762;DHT22;3925;48.636;9.516;2023-03-04T09:41:55;3.30;99.90
7762;DHT22;3925;48.636;9.516;2023-03-04T09:44:25;3.40;99.90
7762;DHT22;3925;48.636;9.516;2023-03-04T09:46:56;3.20;99.90
7762;DHT22;3925;48.636;9.516;2023-03-04T09:49:24;3.20;99.90
7762;DHT22;3925;48.636;9.516;2023-03-04T09:51:56;3.20;99.90
7762;DHT22;3925;48.636;9.516;2023-03-04T09:54:50;2.90;99.90
7762;DHT22;3925;48.636;9.516;2023-03-04T09:57:27;2.90;99.90
7762;DHT22;3925;48.636;9.516;2023-03-04T10:00:04;2.70;99.90
7762;DHT22;3925;48.636;9.516;2023-03-04T10:02:43;2.90;99.90
7762;DHT22;3925;48.636;9.516;2023-03-04T10:05:16;3.00;99.90
7762;DHT22;3925;48.636;9.516;2023-03-04T10:07:47;3.10;99.90
7762;DHT22;3925;48.636;9.516;2023-03-04T10:10:23;3.30;99.90
7762;DHT22;3925;48.636;9.516;2023-03-04T10:12:52;3.20;99.90
7762;DHT22;3925;48.636;9.516;2023-03-04T10:15:26;3.40;99.90
7762;DHT22;3925;48.636;9.516;2023-03-04T10:18:02;3.20;99.90
7762;DHT22;3925;48.636;9.516;2023-03-04T10:20:45;3.30;99.90
7762;DHT22;3925;48.636;9.516;2023-03-04T10:23:18;3.50;99.90
7762;DHT22;3925;48.636;9.516;2023-03-04T10:25:49;3.50;99.90
7762;DHT22;3925;48.636;9.516;2023-03-04T10:28:22;3.60;99.90
7762;DHT22;3925;48.636;9.516;2023-03-04T10:30:54;3.60;99.90
7762;DHT22;3925;48.636;9.516;2023-03-04T10:33:25;3.60;99.90
7762;DHT22;3925;48.636;9.516;2023-03-04T10:35:59;3.60;99.90
7762;DHT22;3925;48.636;9.516;2023-03-04T10:38:29;3.50;99.90
7762;DHT22;3925;48.636;9.516;2023-03-04T10:40:59;3.60;99.90
7762;DHT22;3925;48.636;9.516;2023-03-04T10:43:26;3.60;99.90
7762;DHT22;3925;48.636;9.516;2023-03-04T10:45:57;3.80;99.90
7762;DHT22;3925;48.636;9.516;2023-03-04T10:48:27;4.00;99.90
7762;DHT22;3925;48.636;9.516;2023-03-04T10:51:10;4.00;99.90
7762;DHT22;3925;48.636;9.516;2023-03-04T10:53:40;4.00;99.90
7762;DHT22;3925;48.636;9.516;2023-03-04T10:56:31;4.10;99.90
7762;DHT22;3925;48.636;9.516;2023-03-04T10:59:28;4.20;99.90
7762;DHT22;3925;48.636;9.516;2023-03-04T11:01:56;4.20;99.90
7762;DHT22;3925;48.636;9.516;2023-03-04T11:04:25;4.10;99.90
7762;DHT22;3925;48.636;9.516;2023-03-04T11:06:53;4.10;99.90
7762;DHT22;3925;48.636;9.516;2023-03-04T11:09:23;4.20;99.90
7762;DHT22;3925;48.636;9.516;2023-03-04T11:11:53;4.00;99.90
7762;DHT22;3925;48.636;9.516;2023-03-04T11:14:23;3.90;99.90
7762;DHT22;3925;48.636;9.516;2023-03-04T11:16:55;4.00;99.90
7762;DHT22;3925;48.636;9.516;2023-03-04T11:19:26;4.10;99.90
7762;DHT22;3925;48.636;9.516;2023-03-04T11:21:55;4.30;99.90
7762;DHT22;3925;48.636;9.516;2023-03-04T11:24:25;4.40;99.90
7762;DHT22;3925;48.636;9.516;2023-03-04T11:26:56;4.40;99.90
7762;DHT22;3925;48.636;9.516;2023-03-04T11:29:29;4.60;99.90
7762;DHT22;3925;48.636;9.516;2023-03-04T11:32:02;4.50;99.90
7762;DHT22;3925;48.636;9.516;2023-03-04T11:34:35;4.50;99.90
7762;DHT22;3925;48.636;9.516;2023-03-04T11:37:07;4.30;99.90
7762;DHT22;3925;48.636;9.516;2023-03-04T11:39:40;4.00;99.90
7762;DHT22;3925;48.636;9.516;2023-03-04T11:42:16;4.10;99.90
7762;DHT22;3925;48.636;9.516;2023-03-04T11:44:46;4.30;99.90
7762;DHT22;3925;48.636;9.516;2023-03-04T11:47:22;4.20;99.90
7762;DHT22;3925;48.636;9.516;2023-03-04T11:53:09;4.40;99.90
7762;DHT22;3925;48.636;9.516;2023-03-04T11:55:44;4.80;99.90
7762;DHT22;3925;48.636;9.516;2023-03-04T12:01:28;5.30;99.90
7762;DHT22;3925;48.636;9.516;2023-03-04T12:04:06;5.70;99.90
7762;DHT22;3925;48.636;9.516;2023-03-04T12:06:49;5.70;99.90
7762;DHT22;3925;48.636;9.516;2023-03-04T12:09:30;5.80;99.90
7762;DHT22;3925;48.636;9.516;2023-03-04T12:12:10;5.70;99.90
7762;DHT22;3925;48.636;9.516;2023-03-04T12:14:49;5.90;99.90
7762;DHT22;3925;48.636;9.516;2023-03-04T12:17:42;5.50;99.90
7762;DHT22;3925;48.636;9.516;2023-03-04T12:20:26;4.80;99.90
7762;DHT22;3925;48.636;9.516;2023-03-04T12:23:10;4.40;99.90
7762;DHT22;3925;48.636;9.516;2023-03-04T12:25:42;4.50;99.90
7762;DHT22;3925;48.636;9.516;2023-03-04T12:28:31;4.60;99.90
7762;DHT22;3925;48.636;9.516;2023-03-04T12:31:22;4.50;99.90
7762;DHT22;3925;48.636;9.516;2023-03-04T12:34:06;4.80;99.90
7762;DHT22;3925;48.636;9.516;2023-03-04T12:36:45;4.90;99.90
7762;DHT22;3925;48.636;9.516;2023-03-04T12:39:22;4.90;99.90
7762;DHT22;3925;48.636;9.516;2023-03-04T12:41:57;4.80;99.90
7762;DHT22;3925;48.636;9.516;2023-03-04T12:44:28;5.00;99.90
7762;DHT22;3925;48.636;9.516;2023-03-04T12:49:57;5.10;99.90
7762;DHT22;3925;48.636;9.516;2023-03-04T12:52:34;5.00;99.90
7762;DHT22;3925;48.636;9.516;2023-03-04T12:55:08;5.10;99.90
7762;DHT22;3925;48.636;9.516;2023-03-04T12:57:35;5.00;99.90
7762;DHT22;3925;48.636;9.516;2023-03-04T13:00:12;5.00;99.90
7762;DHT22;3925;48.636;9.516;2023-03-04T13:02:53;5.40;99.90
7762;DHT22;3925;48.636;9.516;2023-03-04T13:05:42;5.30;99.90
7762;DHT22;3925;48.636;9.516;2023-03-04T13:08:18;5.20;99.90
7762;DHT22;3925;48.636;9.516;2023-03-04T13:10:49;5.40;99.90
7762;DHT22;3925;48.636;9.516;2023-03-04T13:13:37;5.40;99.90
7762;DHT22;3925;48.636;9.516;2023-03-04T13:16:05;5.40;99.90
7762;DHT22;3925;48.636;9.516;2023-03-04T13:18:53;5.20;99.90
7762;DHT22;3925;48.636;9.516;2023-03-04T13:21:23;5.30;99.90
7762;DHT22;3925;48.636;9.516;2023-03-04T13:23:50;5.50;99.90
7762;DHT22;3925;48.636;9.516;2023-03-04T13:26:23;5.70;99.90
7762;DHT22;3925;48.636;9.516;2023-03-04T13:29:09;5.60;99.90
7762;DHT22;3925;48.636;9.516;2023-03-04T13:31:56;5.50;99.90
7762;DHT22;3925;48.636;9.516;2023-03-04T13:34:43;5.80;99.90
7762;DHT22;3925;48.636;9.516;2023-03-04T13:37:27;5.90;99.90
7762;DHT22;3925;48.636;9.516;2023-03-04T13:42:55;5.80;99.90
7762;DHT22;3925;48.636;9.516;2023-03-04T13:45:42;6.20;99.90
7762;DHT22;3925;48.636;9.516;2023-03-04T13:48:24;6.30;99.90
7762;DHT22;3925;48.636;9.516;2023-03-04T13:50:53;6.50;99.90
7762;DHT22;3925;48.636;9.516;2023-03-04T13:53:37;6.60;99.90
7762;DHT22;3925;48.636;9.516;2023-03-04T13:56:20;6.80;99.90
7762;DHT22;3925;48.636;9.516;2023-03-04T13:58:48;6.90;99.90
7762;DHT22;3925;48.636;9.516;2023-03-04T14:01:27;6.80;99.90
7762;DHT22;3925;48.636;9.516;2023-03-04T14:03:55;6.70;99.90
7762;DHT22;3925;48.636;9.516;2023-03-04T14:06:25;6.80;99.90
7762;DHT22;3925;48.636;9.516;2023-03-04T14:08:53;7.00;99.90
7762;DHT22;3925;48.636;9.516;2023-03-04T14:11:30;6.90;99.90
7762;DHT22;3925;48.636;9.516;2023-03-04T14:13:59;6.80;99.90
7762;DHT22;3925;48.636;9.516;2023-03-04T14:16:33;6.60;99.90
7762;DHT22;3925;48.636;9.516;2023-03-04T14:19:03;6.60;99.90
7762;DHT22;3925;48.636;9.516;2023-03-04T14:21:33;6.30;99.90
7762;DHT22;3925;48.636;9.516;2023-03-04T14:24:06;6.40;99.90
7762;DHT22;3925;48.636;9.516;2023-03-04T14:26:34;6.30;99.90
7762;DHT22;3925;48.636;9.516;2023-03-04T14:29:00;6.10;99.90
7762;DHT22;3925;48.636;9.516;2023-03-04T14:31:30;6.00;99.90
7762;DHT22;3925;48.636;9.516;2023-03-04T14:34:00;6.10;99.90
7762;DHT22;3925;48.636;9.516;2023-03-04T14:36:30;6.00;99.90
7762;DHT22;3925;48.636;9.516;2023-03-04T14:39:00;5.90;99.90
7762;DHT22;3925;48.636;9.516;2023-03-04T14:41:30;6.00;99.90
7762;DHT22;3925;48.636;9.516;2023-03-04T14:44:10;6.00;99.90
7762;DHT22;3925;48.636;9.516;2023-03-04T14:46:40;6.00;99.90
7762;DHT22;3925;48.636;9.516;2023-03-04T14:49:11;5.80;99.90
7762;DHT22;3925;48.636;9.516;2023-03-04T14:51:43;5.70;99.90
7762;DHT22;3925;48.636;9.516;2023-03-04T14:54:30;5.40;99.90
7762;DHT22;3925;48.636;9.516;2023-03-04T14:56:58;5.40;99.90
7762;DHT22;3925;48.636;9.516;2023-03-04T14:59:30;5.20;99.90
7762;DHT22;3925;48.636;9.516;2023-03-04T15:02:28;5.10;99.90
7762;DHT22;3925;48.636;9.516;2023-03-04T15:05:06;5.30;99.90
7762;DHT22;3925;48.636;9.516;2023-03-04T15:07:35;5.20;99.90
7762;DHT22;3925;48.636;9.516;2023-03-04T15:10:07;5.30;99.90
7762;DHT22;3925;48.636;9.516;2023-03-04T15:12:35;4.90;99.90
7762;DHT22;3925;48.636;9.516;2023-03-04T15:15:28;4.80;99.90
7762;DHT22;3925;48.636;9.516;2023-03-04T15:17:57;4.70;99.90
7762;DHT22;3925;48.636;9.516;2023-03-04T15:20:25;4.90;99.90
7762;DHT22;3925;48.636;9.516;2023-03-04T15:23:02;4.90;99.90
7762;DHT22;3925;48.636;9.516;2023-03-04T15:25:30;4.80;99.90
7762;DHT22;3925;48.636;9.516;2023-03-04T15:27:57;4.80;99.90
7762;DHT22;3925;48.636;9.516;2023-03-04T15:30:26;4.90;99.90
7762;DHT22;3925;48.636;9.516;2023-03-04T15:32:54;5.00;99.90
7762;DHT22;3925;48.636;9.516;2023-03-04T15:35:22;4.90;99.90
7762;DHT22;3925;48.636;9.516;2023-03-04T15:37:50;5.00;99.90
7762;DHT22;3925;48.636;9.516;2023-03-04T15:40:25;5.10;99.90
7762;DHT22;3925;48.636;9.516;2023-03-04T15:42:54;5.00;99.90
7762;DHT22;3925;48.636;9.516;2023-03-04T15:45:23;5.00;99.90
7762;DHT22;3925;48.636;9.516;2023-03-04T15:47:51;4.90;99.90
7762;DHT22;3925;48.636;9.516;2023-03-04T15:50:18;5.00;99.90
7762;DHT22;3925;48.636;9.516;2023-03-04T15:52:46;4.80;99.90
7762;DHT22;3925;48.636;9.516;2023-03-04T15:55:15;4.80;99.90
7762;DHT22;3925;48.636;9.516;2023-03-04T15:57:44;4.80;99.90
7762;DHT22;3925;48.636;9.516;2023-03-04T16:00:13;4.80;99.90
7762;DHT22;3925;48.636;9.516;2023-03-04T16:02:40;4.80;99.90
7762;DHT22;3925;48.636;9.516;2023-03-04T16:05:08;4.80;99.90
7762;DHT22;3925;48.636;9.516;2023-03-04T16:07:36;4.70;99.90
7762;DHT22;3925;48.636;9.516;2023-03-04T16:10:10;4.80;99.90
7762;DHT22;3925;48.636;9.516;2023-03-04T16:12:37;4.70;99.90
7762;DHT22;3925;48.636;9.516;2023-03-04T16:15:13;4.70;99.90
7762;DHT22;3925;48.636;9.516;2023-03-04T16:17:40;4.50;99.90
7762;DHT22;3925;48.636;9.516;2023-03-04T16:20:10;4.60;99.90
7762;DHT22;3925;48.636;9.516;2023-03-04T16:22:38;4.60;99.90
7762;DHT22;3925;48.636;9.516;2023-03-04T16:25:09;4.30;99.90
7762;DHT22;3925;48.636;9.516;2023-03-04T16:27:37;4.40;99.90
7762;DHT22;3925;48.636;9.516;2023-03-04T16:30:05;4.30;99.90
7762;DHT22;3925;48.636;9.516;2023-03-04T16:32:33;4.40;99.90
7762;DHT22;3925;48.636;9.516;2023-03-04T16:35:00;4.30;99.90
7762;DHT22;3925;48.636;9.516;2023-03-04T16:37:27;4.40;99.90
7762;DHT22;3925;48.636;9.516;2023-03-04T16:39:54;4.40;99.90
7762;DHT22;3925;48.636;9.516;2023-03-04T16:42:21;4.40;99.90
7762;DHT22;3925;48.636;9.516;2023-03-04T16:44:50;4.40;99.90
7762;DHT22;3925;48.636;9.516;2023-03-04T16:47:17;4.30;99.90